Time;durP1;ratioP1;P1;durP2;ratioP2;P2;SDS_P1;SDS_P2;PMS_P1;PMS_P2;Temp;Humidity;BMP_temperature;BMP_pressure;BME280_temperature;BME280_humidity;BME280_pressure;Samples;Min_cycle;Max_cycle;Signal;HPM_P1;HPM_P2
2024/02/17 00:00:03;;;;;;;8.33;7.53;;;12.20;1.00;;;;;;5089548;27;20470;-77
2024/02/17 00:02:30;;;;;;;8.50;7.67;;;12.20;1.00;;;;;;5089461;28;20576;-76
2024/02/17 00:04:58;;;;;;;7.60;6.60;;;12.20;1.00;;;;;;5088236;28;20550;-75
2024/02/17 00:07:25;;;;;;;6.37;5.77;;;12.10;1.00;;;;;;5090554;28;20488;-75
2024/02/17 00:09:52;;;;;;;7.10;6.40;;;12.10;1.00;;;;;;5089393;28;20578;-75
2024/02/17 00:12:19;;;;;;;8.03;7.33;;;12.10;1.00;;;;;;5081432;28;20572;-77
2024/02/17 00:14:46;;;;;;;7.40;5.90;;;12.00;1.00;;;;;;5086964;28;20469;-75
2024/02/17 00:17:15;;;;;;;8.53;6.57;;;12.00;1.00;;;;;;5083863;28;20463;-75
2024/02/17 00:19:44;;;;;;;5.70;5.17;;;11.90;1.00;;;;;;5079229;28;22115;-75
2024/02/17 00:22:12;;;;;;;6.00;5.50;;;11.90;1.00;;;;;;5084887;28;20985;-75
2024/02/17 00:24:38;;;;;;;5.20;4.70;;;11.80;1.00;;;;;;5088122;28;20466;-76
2024/02/17 00:27:06;;;;;;;6.00;5.40;;;11.80;1.00;;;;;;5087834;28;21049;-76
2024/02/17 00:29:33;;;;;;;5.37;4.87;;;11.80;1.00;;;;;;5088917;28;20556;-76
2024/02/17 00:32:00;;;;;;;6.30;5.77;;;11.80;1.00;;;;;;5075140;28;20433;-77
2024/02/17 00:34:28;;;;;;;5.10;4.70;;;11.80;1.00;;;;;;5087738;28;20570;-76
2024/02/17 00:36:55;;;;;;;5.13;4.63;;;11.80;1.00;;;;;;5089476;28;20447;-76
2024/02/17 00:39:23;;;;;;;4.83;4.43;;;11.80;1.00;;;;;;5086734;28;20447;-77
2024/02/17 00:41:51;;;;;;;5.67;5.17;;;11.70;1.00;;;;;;5088561;28;20502;-76
2024/02/17 00:44:18;;;;;;;4.60;3.97;;;11.80;1.00;;;;;;5081169;28;20485;-77
2024/02/17 00:46:46;;;;;;;6.57;5.97;;;11.70;1.00;;;;;;5085267;28;20471;-75
2024/02/17 00:49:13;;;;;;;5.90;5.40;;;11.80;1.00;;;;;;5088405;28;20455;-76
2024/02/17 00:51:41;;;;;;;5.73;5.23;;;11.80;1.00;;;;;;5085724;28;20503;-77
2024/02/17 00:54:08;;;;;;;6.57;6.07;;;11.80;1.00;;;;;;5090620;28;20466;-76
2024/02/17 00:56:35;;;;;;;6.50;5.80;;;11.80;1.00;;;;;;5085788;28;20462;-75
2024/02/17 00:59:02;;;;;;;5.77;5.27;;;11.80;1.00;;;;;;5088302;28;20473;-77
2024/02/17 01:01:29;;;;;;;6.07;5.57;;;11.80;1.00;;;;;;5086591;28;20464;-75
2024/02/17 01:03:56;;;;;;;6.60;5.90;;;11.80;1.00;;;;;;5088383;28;20468;-75
2024/02/17 01:06:23;;;;;;;6.40;5.90;;;11.80;1.00;;;;;;5078988;28;20539;-79
2024/02/17 01:08:52;;;;;;;7.83;7.03;;;11.80;1.00;;;;;;5081719;28;20484;-75
2024/02/17 01:11:19;;;;;;;6.10;5.50;;;11.90;1.00;;;;;;5084241;28;20772;-74
2024/02/17 01:13:46;;;;;;;7.87;6.40;;;12.00;1.00;;;;;;5089680;28;20892;-74
2024/02/17 01:16:14;;;;;;;7.60;7.00;;;12.10;1.00;;;;;;5069247;28;20453;-76
2024/02/17 01:18:41;;;;;;;7.53;6.83;;;12.10;1.00;;;;;;5089626;28;20461;-76
2024/02/17 01:21:07;;;;;;;7.10;6.40;;;12.10;1.00;;;;;;5087574;28;20489;-76
2024/02/17 01:23:34;;;;;;;6.47;5.87;;;12.10;1.00;;;;;;5086707;28;20468;-75
2024/02/17 01:26:03;;;;;;;6.20;5.70;;;12.00;1.00;;;;;;5085966;28;20863;-77
2024/02/17 01:28:30;;;;;;;6.17;5.57;;;12.00;1.00;;;;;;5080491;28;20974;-76
2024/02/17 01:30:59;;;;;;;6.50;5.30;;;12.00;1.00;;;;;;5089054;28;20571;-76
2024/02/17 01:33:26;;;;;;;6.20;5.50;;;12.00;1.00;;;;;;5088441;28;20471;-76
2024/02/17 01:35:54;;;;;;;5.33;4.80;;;12.00;1.00;;;;;;5088230;28;20448;-76
2024/02/17 01:38:20;;;;;;;5.00;4.60;;;12.00;1.00;;;;;;5085671;28;20908;-76
2024/02/17 01:40:48;;;;;;;4.10;3.70;;;12.00;1.00;;;;;;5086922;28;20594;-75
2024/02/17 01:43:16;;;;;;;4.77;4.37;;;12.00;1.00;;;;;;5087468;28;20593;-76
2024/02/17 01:45:44;;;;;;;4.90;4.10;;;11.90;1.00;;;;;;5084760;28;20453;-76
2024/02/17 01:48:11;;;;;;;4.87;4.43;;;11.90;1.00;;;;;;5087758;28;20546;-76
2024/02/17 01:50:38;;;;;;;3.90;3.60;;;11.90;1.00;;;;;;5088764;28;20414;-76
2024/02/17 01:53:06;;;;;;;8.60;4.27;;;11.90;1.00;;;;;;5086288;28;20509;-75
2024/02/17 01:55:34;;;;;;;4.93;4.53;;;11.90;1.00;;;;;;5086693;28;20463;-76
2024/02/17 01:58:01;;;;;;;4.57;4.17;;;11.90;1.00;;;;;;5089467;28;21383;-77
2024/02/17 02:00:30;;;;;;;3.90;3.60;;;11.90;1.00;;;;;;5086007;28;20460;-76
2024/02/17 02:02:57;;;;;;;4.53;3.70;;;11.90;1.00;;;;;;5089804;28;21072;-76
2024/02/17 02:05:23;;;;;;;4.47;4.07;;;12.00;1.00;;;;;;5088597;28;20966;-76
2024/02/17 02:07:50;;;;;;;6.23;4.27;;;12.00;1.00;;;;;;5086106;28;20892;-76
2024/02/17 02:10:18;;;;;;;3.97;3.67;;;11.90;1.00;;;;;;5087738;27;20568;-76
2024/02/17 02:12:47;;;;;;;3.73;3.10;;;11.90;1.00;;;;;;5092653;27;20467;-76
2024/02/17 02:15:14;;;;;;;4.20;3.80;;;11.90;1.00;;;;;;5107984;27;20454;-74
2024/02/17 02:17:43;;;;;;;3.67;3.40;;;11.90;1.00;;;;;;5108509;27;20461;-75
2024/02/17 02:20:12;;;;;;;3.50;3.20;;;12.00;1.00;;;;;;5106169;27;20447;-76
2024/02/17 02:22:41;;;;;;;4.40;3.40;;;12.00;1.00;;;;;;5106796;27;20462;-77
2024/02/17 02:25:20;;;;;;;5.43;4.03;;;12.00;1.00;;;;;;5106625;27;20461;-74
2024/02/17 02:27:48;;;;;;;3.33;3.13;;;11.90;1.00;;;;;;5107545;27;20465;-74
2024/02/17 02:30:16;;;;;;;5.20;4.33;;;11.90;1.00;;;;;;5107595;27;20464;-75
2024/02/17 02:32:44;;;;;;;4.10;3.80;;;11.90;1.00;;;;;;5106441;27;20977;-74
2024/02/17 02:35:11;;;;;;;5.93;4.20;;;12.00;1.00;;;;;;5107138;27;20977;-75
2024/02/17 02:37:38;;;;;;;4.93;4.47;;;11.90;1.00;;;;;;5107799;27;20459;-74
2024/02/17 02:40:07;;;;;;;4.37;4.07;;;11.80;1.00;;;;;;5105628;27;20454;-75
2024/02/17 02:42:34;;;;;;;5.20;4.70;;;11.80;1.00;;;;;;5105717;27;20558;-74
2024/02/17 02:45:03;;;;;;;4.80;4.40;;;11.80;1.00;;;;;;5104882;27;20541;-74
2024/02/17 02:47:31;;;;;;;4.77;4.27;;;11.80;1.00;;;;;;5108711;27;20553;-74
2024/02/17 02:49:59;;;;;;;5.80;5.00;;;11.70;1.00;;;;;;5109304;27;20466;-74
2024/02/17 02:52:28;;;;;;;5.17;4.77;;;11.70;1.00;;;;;;5105147;27;20511;-75
2024/02/17 02:54:55;;;;;;;5.70;5.10;;;11.70;1.00;;;;;;5104402;27;20573;-76
2024/02/17 02:57:22;;;;;;;5.43;4.30;;;11.60;1.00;;;;;;5105930;27;20544;-74
2024/02/17 02:59:50;;;;;;;5.80;5.07;;;11.60;1.00;;;;;;5110950;27;21076;-74
2024/02/17 03:02:18;;;;;;;5.27;4.80;;;11.50;1.00;;;;;;5086664;27;21017;-75
2024/02/17 03:04:46;;;;;;;6.37;5.77;;;11.40;1.00;;;;;;5107725;27;21032;-74
2024/02/17 03:07:13;;;;;;;6.57;5.87;;;11.40;1.00;;;;;;5106304;27;20571;-77
2024/02/17 03:09:40;;;;;;;6.70;6.00;;;11.40;1.00;;;;;;5109365;27;20422;-74
2024/02/17 03:12:08;;;;;;;6.07;5.50;;;11.30;1.00;;;;;;5105189;27;20553;-75
2024/02/17 03:14:36;;;;;;;7.17;6.47;;;11.30;1.00;;;;;;5105015;27;20853;-76
2024/02/17 03:17:04;;;;;;;6.13;5.53;;;11.30;1.00;;;;;;5085160;27;20947;-74
2024/02/17 03:19:33;;;;;;;6.63;6.03;;;11.20;1.00;;;;;;5104812;27;20477;-79
2024/02/17 03:22:00;;;;;;;6.70;6.10;;;11.20;1.00;;;;;;5105028;27;20487;-75
2024/02/17 03:24:27;;;;;;;6.83;6.13;;;11.10;1.00;;;;;;5103842;27;20453;-73
2024/02/17 03:26:56;;;;;;;7.07;6.37;;;11.10;1.00;;;;;;5107781;27;20519;-75
2024/02/17 03:29:25;;;;;;;6.83;6.20;;;11.20;1.00;;;;;;5086817;27;20529;-74
2024/02/17 03:31:54;;;;;;;7.60;6.90;;;11.20;1.00;;;;;;5113263;27;20485;-76
2024/02/17 03:34:22;;;;;;;7.07;6.23;;;11.10;1.00;;;;;;5108441;27;20463;-75
2024/02/17 03:36:50;;;;;;;8.40;6.80;;;11.10;1.00;;;;;;5106343;27;20458;-78
2024/02/17 03:39:19;;;;;;;7.40;6.63;;;11.00;1.00;;;;;;5110481;27;20469;-77
2024/02/17 03:41:46;;;;;;;7.00;6.40;;;11.10;1.00;;;;;;5113625;27;20483;-76
2024/02/17 03:44:15;;;;;;;6.90;6.27;;;11.00;1.00;;;;;;5090204;28;20459;-76
2024/02/17 03:46:43;;;;;;;7.27;6.67;;;11.10;1.00;;;;;;5111548;27;20495;-77
2024/02/17 03:49:10;;;;;;;7.03;6.33;;;11.10;1.00;;;;;;5108942;27;20540;-75
2024/02/17 03:51:37;;;;;;;8.07;6.87;;;11.20;1.00;;;;;;5111497;27;20483;-77
2024/02/17 03:54:06;;;;;;;7.50;6.70;;;11.20;1.00;;;;;;5108440;27;20550;-77
2024/02/17 03:56:33;;;;;;;8.17;6.60;;;11.20;1.00;;;;;;5097638;27;20473;-77
2024/02/17 03:59:00;;;;;;;8.03;7.27;;;11.30;1.00;;;;;;5107161;27;20486;-77
2024/02/17 04:01:30;;;;;;;7.10;6.20;;;11.30;1.00;;;;;;5112480;27;20460;-77
2024/02/17 04:03:57;;;;;;;7.20;6.60;;;11.40;1.00;;;;;;5109557;27;20890;-76
2024/02/17 04:06:24;;;;;;;6.90;6.20;;;11.50;1.00;;;;;;5105455;27;20454;-75
2024/02/17 04:08:51;;;;;;;8.00;7.33;;;11.50;1.00;;;;;;5110995;27;20899;-76
2024/02/17 04:11:19;;;;;;;7.53;6.43;;;11.50;1.00;;;;;;5102219;27;20505;-76
2024/02/17 04:13:46;;;;;;;7.47;6.87;;;11.50;1.00;;;;;;5090636;28;20919;-77
2024/02/17 04:16:14;;;;;;;7.47;6.70;;;11.50;1.00;;;;;;5069749;28;20897;-76
2024/02/17 04:18:41;;;;;;;6.80;6.10;;;11.50;1.00;;;;;;5091666;28;20457;-77
2024/02/17 04:21:08;;;;;;;7.50;6.63;;;11.60;1.00;;;;;;5095293;28;20467;-76
2024/02/17 04:23:37;;;;;;;7.67;6.93;;;11.50;1.00;;;;;;5085547;28;20470;-75
2024/02/17 04:26:06;;;;;;;7.13;6.47;;;11.60;1.00;;;;;;5092537;28;20431;-76
2024/02/17 04:28:35;;;;;;;7.33;6.63;;;11.60;1.00;;;;;;5090002;28;20507;-76
2024/02/17 04:31:02;;;;;;;8.30;7.50;;;11.50;1.00;;;;;;5081160;28;20451;-77
2024/02/17 04:33:29;;;;;;;8.07;7.27;;;11.50;1.00;;;;;;5089030;28;20464;-76
2024/02/17 04:35:58;;;;;;;8.80;7.90;;;11.40;1.00;;;;;;5089439;28;20533;-75
2024/02/17 04:38:25;;;;;;;9.00;8.10;;;11.40;1.00;;;;;;5087427;28;20439;-76
2024/02/17 04:40:52;;;;;;;10.13;7.00;;;11.50;1.00;;;;;;5090486;28;21114;-77
2024/02/17 04:43:19;;;;;;;8.20;6.87;;;11.50;1.00;;;;;;5087032;28;21102;-76
2024/02/17 04:45:48;;;;;;;7.90;7.20;;;11.50;1.00;;;;;;5089975;28;20985;-74
2024/02/17 04:48:17;;;;;;;7.97;7.27;;;11.60;1.00;;;;;;5088892;28;20590;-76
2024/02/17 04:50:44;;;;;;;8.13;7.33;;;11.50;1.00;;;;;;5092214;28;20528;-75
2024/02/17 04:53:11;;;;;;;8.60;7.73;;;11.50;1.00;;;;;;5087670;28;20468;-74
2024/02/17 04:55:38;;;;;;;8.57;7.67;;;11.50;1.00;;;;;;5091065;28;20489;-75
2024/02/17 04:58:06;;;;;;;7.50;6.80;;;11.40;1.00;;;;;;5089275;28;20463;-74
2024/02/17 05:00:34;;;;;;;8.07;7.27;;;11.40;1.00;;;;;;5087317;28;20509;-76
2024/02/17 05:03:03;;;;;;;9.13;7.07;;;11.50;1.00;;;;;;5087338;28;21086;-76
2024/02/17 05:05:30;;;;;;;7.83;7.13;;;11.50;1.00;;;;;;5082668;28;20516;-74
2024/02/17 05:07:58;;;;;;;8.27;7.47;;;11.40;1.00;;;;;;5089917;28;20574;-74
2024/02/17 05:10:25;;;;;;;8.57;7.70;;;11.30;1.00;;;;;;5090298;28;20493;-76
2024/02/17 05:12:52;;;;;;;8.50;7.70;;;11.30;1.00;;;;;;5110677;27;20474;-74
2024/02/17 05:15:21;;;;;;;8.40;7.60;;;11.30;1.00;;;;;;5107177;27;20462;-75
2024/02/17 05:17:48;;;;;;;7.43;6.73;;;11.20;1.00;;;;;;5108609;27;20564;-74
2024/02/17 05:20:17;;;;;;;9.13;7.87;;;11.20;1.00;;;;;;5107317;27;20553;-75
2024/02/17 05:22:45;;;;;;;10.47;7.33;;;11.20;1.00;;;;;;5105607;27;20454;-74
2024/02/17 05:25:12;;;;;;;10.20;7.47;;;11.20;1.00;;;;;;5106937;27;20458;-74
2024/02/17 05:27:40;;;;;;;7.60;6.80;;;11.20;1.00;;;;;;5109988;27;20562;-75
2024/02/17 05:30:09;;;;;;;9.00;7.63;;;11.20;1.00;;;;;;5108596;27;20477;-75
2024/02/17 05:32:37;;;;;;;8.80;7.63;;;11.20;1.00;;;;;;5108720;27;20446;-75
2024/02/17 05:35:06;;;;;;;8.17;7.17;;;11.20;1.00;;;;;;5107176;27;20456;-75
2024/02/17 05:37:34;;;;;;;9.33;7.73;;;11.20;1.00;;;;;;5111447;27;20561;-75
2024/02/17 05:40:05;;;;;;;8.20;6.80;;;11.20;1.00;;;;;;5105784;27;20476;-77
2024/02/17 05:42:36;;;;;;;8.60;7.80;;;11.20;1.00;;;;;;5108085;27;20458;-76
2024/02/17 05:45:04;;;;;;;7.57;6.77;;;11.20;1.00;;;;;;5108027;27;20465;-76
2024/02/17 05:47:31;;;;;;;7.90;7.20;;;11.10;1.00;;;;;;5105448;27;20542;-74
2024/02/17 05:50:00;;;;;;;8.20;6.73;;;11.10;1.00;;;;;;5110384;27;20586;-75
2024/02/17 05:52:28;;;;;;;8.40;7.50;;;11.10;1.00;;;;;;5103801;27;20562;-76
2024/02/17 05:54:57;;;;;;;9.43;7.10;;;11.20;1.00;;;;;;5103876;27;20462;-78
2024/02/17 05:57:24;;;;;;;13.40;7.63;;;11.20;1.00;;;;;;5107094;27;20811;-76
2024/02/17 05:59:52;;;;;;;7.23;6.17;;;11.00;1.00;;;;;;5107644;27;20482;-77
2024/02/17 06:02:20;;;;;;;7.97;7.17;;;10.90;1.00;;;;;;5102705;27;21339;-77
2024/02/17 06:04:47;;;;;;;7.03;6.13;;;10.80;1.00;;;;;;5092257;28;20470;-77
2024/02/17 06:07:14;;;;;;;7.67;6.97;;;10.70;1.00;;;;;;5105976;27;20457;-77
2024/02/17 06:09:41;;;;;;;6.70;6.00;;;10.60;1.00;;;;;;5107330;27;21422;-77
2024/02/17 06:12:10;;;;;;;7.33;6.63;;;10.60;1.00;;;;;;5107858;27;20558;-77
2024/02/17 06:14:37;;;;;;;6.00;5.33;;;10.50;1.00;;;;;;5108170;27;20458;-77
2024/02/17 06:17:07;;;;;;;6.07;5.47;;;10.50;1.00;;;;;;5103338;27;20516;-75
2024/02/17 06:22:18;;;;;;;7.27;5.60;;;10.50;1.00;;;;;;5106784;27;21208;-76
2024/02/17 06:24:46;;;;;;;8.90;5.80;;;10.60;1.00;;;;;;5099082;27;20461;-76
2024/02/17 06:27:16;;;;;;;6.60;5.77;;;10.70;1.00;;;;;;5111520;27;20972;-76
2024/02/17 06:29:44;;;;;;;6.23;5.67;;;10.70;1.00;;;;;;5106893;27;21014;-75
2024/02/17 06:32:11;;;;;;;7.10;5.80;;;10.80;1.00;;;;;;5107023;27;20472;-76
2024/02/17 06:34:41;;;;;;;8.03;6.23;;;10.80;1.00;;;;;;5103675;27;21557;-76
2024/02/17 06:37:07;;;;;;;8.93;5.90;;;10.80;1.00;;;;;;5106974;27;20485;-74
2024/02/17 06:39:35;;;;;;;6.40;5.70;;;10.70;1.00;;;;;;5107657;27;20552;-76
2024/02/17 06:42:02;;;;;;;5.80;5.30;;;10.70;1.00;;;;;;5108214;27;20496;-76
2024/02/17 06:44:33;;;;;;;8.10;6.37;;;10.70;1.00;;;;;;5106587;27;20524;-74
2024/02/17 06:47:00;;;;;;;7.80;5.83;;;10.60;1.00;;;;;;5106530;27;20454;-76
2024/02/17 06:49:28;;;;;;;7.27;5.73;;;10.60;1.00;;;;;;5104406;27;20852;-75
2024/02/17 06:51:54;;;;;;;7.10;6.07;;;10.60;1.00;;;;;;5099339;27;21263;-76
2024/02/17 06:54:22;;;;;;;7.53;6.40;;;10.60;1.00;;;;;;5099749;27;21110;-77
2024/02/17 06:56:50;;;;;;;6.90;5.63;;;10.60;1.00;;;;;;5101712;27;20417;-75
2024/02/17 06:59:19;;;;;;;6.10;5.50;;;10.60;1.00;;;;;;5105989;27;21376;-76
2024/02/17 07:01:48;;;;;;;6.00;5.40;;;10.60;1.00;;;;;;5098571;27;20461;-76
2024/02/17 07:04:16;;;;;;;7.47;6.20;;;10.70;1.00;;;;;;5102350;27;20969;-77
2024/02/17 07:06:44;;;;;;;7.57;6.60;;;10.70;1.00;;;;;;5097271;27;20518;-76
2024/02/17 07:09:16;;;;;;;5.63;5.00;;;10.80;1.00;;;;;;5096740;27;20552;-77
2024/02/17 07:11:43;;;;;;;6.10;5.40;;;10.90;1.00;;;;;;5106399;27;20793;-76
2024/02/17 07:14:13;;;;;;;9.40;6.20;;;10.90;1.00;;;;;;5099575;27;21255;-77
2024/02/17 07:16:40;;;;;;;7.30;6.10;;;11.00;1.00;;;;;;5105171;27;20576;-75
2024/02/17 07:19:09;;;;;;;8.73;6.50;;;11.00;1.00;;;;;;5105633;27;20854;-76
2024/02/17 07:21:36;;;;;;;6.77;6.17;;;11.00;1.00;;;;;;5104984;27;21267;-76
2024/02/17 07:24:03;;;;;;;7.77;6.13;;;11.00;1.00;;;;;;5106738;27;20455;-76
2024/02/17 07:26:30;;;;;;;5.33;4.80;;;11.00;1.00;;;;;;5106845;27;20561;-77
2024/02/17 07:28:58;;;;;;;7.27;5.70;;;11.00;1.00;;;;;;5105272;27;20465;-76
2024/02/17 07:31:29;;;;;;;5.50;4.73;;;10.90;1.00;;;;;;5103929;27;20450;-76
2024/02/17 07:33:57;;;;;;;8.80;5.33;;;10.90;1.00;;;;;;5099121;27;20541;-76
2024/02/17 07:36:26;;;;;;;5.47;4.57;;;10.90;1.00;;;;;;5101045;27;20477;-75
2024/02/17 07:38:54;;;;;;;7.67;6.10;;;10.90;1.00;;;;;;5083120;27;20497;-76
2024/02/17 07:41:21;;;;;;;6.63;5.77;;;10.90;1.00;;;;;;5105290;27;20454;-76
2024/02/17 07:43:49;;;;;;;7.93;6.30;;;10.90;1.00;;;;;;5101217;27;20953;-75
2024/02/17 07:46:17;;;;;;;10.43;5.97;;;11.00;1.00;;;;;;5103656;27;21714;-75
2024/02/17 07:48:45;;;;;;;6.20;5.00;;;11.00;1.00;;;;;;5106234;27;20466;-76
2024/02/17 07:51:12;;;;;;;8.60;5.40;;;11.00;1.00;;;;;;5103577;27;20540;-75
2024/02/17 07:53:41;;;;;;;8.80;5.27;;;11.00;1.00;;;;;;5102373;27;21342;-75
2024/02/17 07:56:09;;;;;;;6.27;4.50;;;10.90;1.00;;;;;;5101368;27;20547;-78
2024/02/17 07:58:36;;;;;;;8.60;5.10;;;11.00;1.00;;;;;;5104198;27;20523;-75
2024/02/17 08:01:05;;;;;;;5.33;4.83;;;11.00;1.00;;;;;;5103612;27;20504;-74
2024/02/17 08:03:33;;;;;;;5.77;4.83;;;11.10;1.00;;;;;;5100707;27;20488;-77
2024/02/17 08:06:00;;;;;;;7.53;5.00;;;11.10;1.00;;;;;;5099398;27;20531;-77
2024/02/17 08:08:27;;;;;;;5.27;4.77;;;11.20;1.00;;;;;;5106120;27;20449;-77
2024/02/17 08:10:57;;;;;;;5.60;5.03;;;11.10;1.00;;;;;;5105203;27;20985;-78
2024/02/17 08:13:24;;;;;;;6.40;4.60;;;11.20;1.00;;;;;;5105619;27;20508;-77
2024/02/17 08:15:52;;;;;;;4.50;4.10;;;11.20;1.00;;;;;;5103042;27;20434;-77
2024/02/17 08:18:19;;;;;;;8.40;4.43;;;11.20;1.00;;;;;;5105143;27;20910;-76
2024/02/17 08:20:48;;;;;;;4.30;3.67;;;11.20;1.00;;;;;;5104653;27;20507;-77
2024/02/17 08:23:16;;;;;;;6.23;4.10;;;11.30;1.00;;;;;;5107511;27;20485;-77
2024/02/17 08:25:43;;;;;;;7.97;3.73;;;11.40;1.00;;;;;;5108664;27;21099;-76
2024/02/17 08:28:11;;;;;;;4.80;3.90;;;11.40;1.00;;;;;;5105814;27;20474;-77
2024/02/17 08:30:39;;;;;;;8.50;3.90;;;11.30;1.00;;;;;;5106594;27;20422;-76
2024/02/17 08:33:07;;;;;;;5.83;4.10;;;11.30;1.00;;;;;;5106893;27;20465;-76
2024/02/17 08:35:35;;;;;;;6.50;3.80;;;11.30;1.00;;;;;;5110554;27;21183;-76
2024/02/17 08:38:02;;;;;;;4.53;3.10;;;11.20;1.00;;;;;;5108918;27;20593;-76
2024/02/17 08:40:29;;;;;;;4.77;3.60;;;11.20;1.00;;;;;;5104811;27;20537;-76
2024/02/17 08:42:57;;;;;;;4.57;2.93;;;11.20;1.00;;;;;;5105416;27;20454;-76
2024/02/17 08:45:25;;;;;;;3.90;3.00;;;11.20;1.00;;;;;;5104256;27;20505;-74
2024/02/17 08:47:52;;;;;;;4.17;2.93;;;11.20;1.00;;;;;;5107254;27;20473;-75
2024/02/17 08:50:20;;;;;;;3.93;3.03;;;11.20;1.00;;;;;;5098887;27;20463;-75
2024/02/17 08:52:47;;;;;;;3.50;2.50;;;11.30;1.00;;;;;;5104015;27;20977;-76
2024/02/17 08:55:14;;;;;;;3.90;2.53;;;11.30;1.00;;;;;;5108270;27;20520;-76
2024/02/17 08:57:41;;;;;;;5.17;2.53;;;11.20;1.00;;;;;;5096156;27;21102;-76
2024/02/17 09:00:10;;;;;;;4.57;2.50;;;11.10;1.00;;;;;;5095176;27;20895;-77
2024/02/17 09:02:41;;;;;;;4.57;2.70;;;11.00;1.00;;;;;;5105146;27;21847;-77
2024/02/17 09:05:10;;;;;;;4.30;2.93;;;11.00;1.00;;;;;;5102705;27;20992;-77
2024/02/17 09:07:37;;;;;;;3.07;2.10;;;11.10;1.00;;;;;;5106185;27;20469;-77
2024/02/17 09:10:06;;;;;;;4.37;3.07;;;11.00;1.00;;;;;;5114102;27;20457;-77
2024/02/17 09:12:33;;;;;;;2.43;2.13;;;11.00;1.00;;;;;;5107174;27;20479;-78
2024/02/17 09:15:00;;;;;;;5.10;2.53;;;11.00;1.00;;;;;;5087117;28;20458;-77
2024/02/17 09:17:28;;;;;;;2.53;2.23;;;11.10;1.00;;;;;;5110432;27;20471;-77
2024/02/17 09:19:58;;;;;;;2.20;1.57;;;11.30;1.00;;;;;;5108793;27;20581;-77
2024/02/17 09:22:25;;;;;;;2.93;1.77;;;11.30;1.00;;;;;;5107042;27;21128;-76
2024/02/17 09:24:55;;;;;;;2.60;1.67;;;11.40;1.00;;;;;;5109853;27;20458;-76
2024/02/17 09:27:23;;;;;;;1.77;1.50;;;11.50;1.00;;;;;;5108109;27;21356;-75
2024/02/17 09:29:51;;;;;;;1.90;1.53;;;11.50;1.00;;;;;;5109443;27;22420;-76
2024/02/17 09:32:20;;;;;;;2.00;1.20;;;11.60;1.00;;;;;;5087817;27;20469;-76
2024/02/17 09:34:49;;;;;;;1.17;1.00;;;12.10;1.00;;;;;;5107539;27;20457;-76
2024/02/17 09:37:17;;;;;;;1.33;1.03;;;12.40;1.00;;;;;;5108445;27;20461;-75
2024/02/17 09:39:46;;;;;;;1.43;1.17;;;12.10;1.00;;;;;;5099434;27;20446;-78
2024/02/17 09:42:14;;;;;;;1.60;0.93;;;12.20;1.00;;;;;;5102213;27;20441;-78
2024/02/17 09:44:41;;;;;;;1.33;1.00;;;12.20;1.00;;;;;;5110086;27;20463;-76
2024/02/17 09:47:08;;;;;;;2.10;1.37;;;12.10;1.00;;;;;;5105755;27;21148;-77
2024/02/17 09:49:37;;;;;;;2.17;0.90;;;12.00;1.00;;;;;;5101324;27;20458;-76
2024/02/17 09:52:12;;;;;;;1.07;0.97;;;12.20;1.00;;;;;;5110198;27;20915;-78
2024/02/17 09:54:42;;;;;;;1.67;1.00;;;12.40;1.00;;;;;;5104373;27;20454;-75
2024/02/17 09:57:09;;;;;;;1.73;1.20;;;12.50;1.00;;;;;;5109187;27;20568;-75
2024/02/17 09:59:36;;;;;;;3.43;1.17;;;12.60;1.00;;;;;;5107788;27;20474;-75
2024/02/17 10:02:03;;;;;;;1.23;1.00;;;12.80;1.00;;;;;;5109047;27;20579;-76
2024/02/17 10:04:31;;;;;;;1.20;1.00;;;13.00;1.00;;;;;;5104756;27;20523;-76
2024/02/17 10:07:00;;;;;;;1.70;0.70;;;12.80;1.00;;;;;;5108131;27;20483;-75
2024/02/17 10:09:28;;;;;;;1.53;0.80;;;12.80;1.00;;;;;;5107310;27;20535;-77
2024/02/17 10:11:57;;;;;;;1.80;1.00;;;13.10;1.00;;;;;;5107180;27;21177;-76
2024/02/17 10:14:26;;;;;;;3.70;0.80;;;13.00;1.00;;;;;;5109268;27;20455;-74
2024/02/17 10:16:58;;;;;;;1.87;0.80;;;13.10;1.00;;;;;;5088869;28;20564;-76
2024/02/17 10:19:27;;;;;;;1.20;0.80;;;13.40;1.00;;;;;;5105899;27;20443;-78
2024/02/17 10:21:58;;;;;;;1.43;0.87;;;13.30;1.00;;;;;;5109170;27;20466;-77
2024/02/17 10:24:26;;;;;;;1.00;0.80;;;13.20;1.00;;;;;;5108565;27;20932;-78
2024/02/17 10:26:54;;;;;;;0.87;0.80;;;13.00;1.00;;;;;;5098141;27;20996;-76
2024/02/17 10:29:24;;;;;;;3.43;0.83;;;12.40;1.00;;;;;;5108644;27;21043;-76
2024/02/17 10:31:53;;;;;;;1.27;0.70;;;12.60;1.00;;;;;;5109637;27;20458;-77
2024/02/17 10:34:21;;;;;;;1.20;0.80;;;13.60;1.00;;;;;;5109698;27;20881;-78
2024/02/17 10:36:51;;;;;;;1.00;0.80;;;14.00;1.00;;;;;;5110803;27;20469;-76
2024/02/17 10:39:20;;;;;;;1.47;0.70;;;14.00;1.00;;;;;;5108821;27;20500;-75
2024/02/17 10:41:48;;;;;;;0.93;0.80;;;13.70;1.00;;;;;;5109177;27;20454;-79
2024/02/17 10:44:16;;;;;;;1.50;0.70;;;13.60;1.00;;;;;;5105545;27;21360;-78
2024/02/17 10:46:50;;;;;;;1.10;0.60;;;13.60;1.00;;;;;;5107880;27;20547;-77
2024/02/17 10:49:29;;;;;;;0.97;0.73;;;13.70;1.00;;;;;;5108121;27;20467;-78
2024/02/17 10:51:59;;;;;;;1.03;0.80;;;14.00;1.00;;;;;;5087534;27;20454;-78
2024/02/17 10:54:46;;;;;;;1.67;0.97;;;14.50;1.00;;;;;;5108032;27;20440;-75
2024/02/17 10:57:16;;;;;;;0.70;0.60;;;15.20;1.00;;;;;;5108237;27;20583;-76
2024/02/17 10:59:47;;;;;;;2.60;1.90;;;16.10;1.00;;;;;;5108564;27;21220;-78
2024/02/17 11:02:25;;;;;;;1.10;0.80;;;16.90;1.00;;;;;;5107642;27;21018;-77
2024/02/17 11:04:53;;;;;;;1.57;1.07;;;17.50;1.00;;;;;;5106484;27;21174;-76
2024/02/17 11:07:20;;;;;;;1.20;0.70;;;18.10;1.00;;;;;;5093175;27;20573;-78
2024/02/17 11:09:47;;;;;;;1.37;0.73;;;17.70;1.00;;;;;;5104826;27;20450;-77
2024/02/17 11:12:34;;;;;;;1.90;0.87;;;16.80;1.00;;;;;;5110458;27;20551;-77
2024/02/17 11:15:02;;;;;;;2.40;0.90;;;16.30;1.00;;;;;;5106347;27;20803;-77
2024/02/17 11:17:44;;;;;;;1.10;1.00;;;16.50;1.00;;;;;;5107278;27;20474;-76
2024/02/17 11:20:13;;;;;;;0.90;0.80;;;15.50;1.00;;;;;;5106170;27;20460;-76
2024/02/17 11:22:41;;;;;;;2.20;1.20;;;15.20;1.00;;;;;;5108089;27;20450;-78
2024/02/17 11:25:11;;;;;;;2.07;1.17;;;16.20;1.00;;;;;;5107726;27;20468;-76
2024/02/17 11:27:42;;;;;;;1.20;1.10;;;16.30;1.00;;;;;;5110080;27;20526;-76
2024/02/17 11:30:10;;;;;;;2.33;1.10;;;15.30;1.00;;;;;;5104829;27;20594;-76
2024/02/17 11:32:40;;;;;;;1.60;1.50;;;14.10;1.00;;;;;;5106064;27;20546;-78
2024/02/17 11:35:08;;;;;;;1.87;1.30;;;13.30;1.00;;;;;;5104984;27;20516;-77
2024/02/17 11:37:37;;;;;;;2.70;1.97;;;12.80;1.00;;;;;;5109148;27;21296;-77
2024/02/17 11:40:05;;;;;;;1.83;1.30;;;12.80;1.00;;;;;;5109098;27;20502;-76
2024/02/17 11:42:31;;;;;;;3.23;1.43;;;13.20;1.00;;;;;;5109144;27;20549;-75
2024/02/17 11:45:00;;;;;;;2.10;1.30;;;12.80;1.00;;;;;;5110656;27;20466;-76
2024/02/17 11:47:31;;;;;;;1.70;1.30;;;12.40;1.00;;;;;;5107144;27;20909;-75
2024/02/17 11:50:14;;;;;;;1.63;0.90;;;12.20;1.00;;;;;;5103558;27;20438;-77
2024/02/17 11:52:42;;;;;;;3.17;1.43;;;12.40;1.00;;;;;;5094360;27;20458;-75
2024/02/17 11:55:15;;;;;;;3.00;1.73;;;12.60;1.00;;;;;;5082143;27;21027;-78
2024/02/17 11:57:46;;;;;;;3.57;1.40;;;12.60;1.00;;;;;;5108089;27;21422;-75
2024/02/17 12:00:17;;;;;;;3.33;1.60;;;12.40;1.00;;;;;;5104696;27;20451;-76
2024/02/17 12:02:45;;;;;;;2.77;2.00;;;12.10;1.00;;;;;;5107690;27;20515;-76
2024/02/17 12:05:16;;;;;;;2.63;1.43;;;11.70;1.00;;;;;;5109523;27;21494;-76
2024/02/17 12:07:44;;;;;;;4.60;2.00;;;11.40;1.00;;;;;;5113434;27;21972;-78
2024/02/17 12:10:12;;;;;;;4.27;1.80;;;11.20;1.00;;;;;;5082988;27;20537;-80
2024/02/17 12:12:40;;;;;;;7.93;1.50;;;11.10;1.00;;;;;;5113129;27;20460;-79
2024/02/17 12:15:11;;;;;;;4.93;2.37;;;11.10;1.00;;;;;;5097196;27;20460;-77
2024/02/17 12:17:43;;;;;;;4.20;1.73;;;11.30;1.00;;;;;;5106919;27;21287;-78
2024/02/17 12:20:12;;;;;;;2.27;1.27;;;11.40;1.00;;;;;;5106680;27;20475;-75
2024/02/17 12:22:46;;;;;;;4.20;1.90;;;11.50;1.00;;;;;;5110616;27;20493;-77
2024/02/17 12:25:14;;;;;;;4.13;1.70;;;11.70;1.00;;;;;;5114920;27;20530;-77
2024/02/17 12:27:42;;;;;;;4.50;2.47;;;11.70;1.00;;;;;;5111695;27;20470;-77
2024/02/17 12:30:13;;;;;;;4.60;2.20;;;11.60;1.00;;;;;;5110147;27;21124;-76
2024/02/17 12:32:43;;;;;;;4.97;2.13;;;11.60;1.00;;;;;;5113567;27;20453;-78
2024/02/17 12:35:14;;;;;;;2.80;1.50;;;11.60;1.00;;;;;;5112314;27;20431;-77
2024/02/17 12:37:50;;;;;;;4.90;2.00;;;11.80;1.00;;;;;;5110042;27;20470;-76
2024/02/17 12:40:18;;;;;;;4.60;2.20;;;11.90;1.00;;;;;;5092112;28;20423;-79
2024/02/17 12:42:51;;;;;;;3.93;2.27;;;11.90;1.00;;;;;;5113043;27;20469;-76
2024/02/17 12:45:26;;;;;;;3.97;1.60;;;11.90;1.00;;;;;;5110458;27;21010;-78
2024/02/17 12:47:53;;;;;;;4.20;1.57;;;11.70;1.00;;;;;;5110260;27;20601;-76
2024/02/17 12:50:22;;;;;;;3.63;1.47;;;11.60;1.00;;;;;;5092905;27;20453;-78
2024/02/17 12:52:51;;;;;;;8.27;2.23;;;11.40;1.00;;;;;;5113420;27;20458;-75
2024/02/17 12:55:18;;;;;;;4.47;2.13;;;11.40;1.00;;;;;;5109670;27;21204;-76
2024/02/17 12:57:47;;;;;;;5.70;1.93;;;11.10;1.00;;;;;;5087992;28;20461;-74
2024/02/17 13:00:16;;;;;;;5.70;2.00;;;11.00;1.00;;;;;;5108998;27;21267;-76
2024/02/17 13:02:43;;;;;;;4.47;2.57;;;11.00;1.00;;;;;;5111081;27;20631;-79
2024/02/17 13:05:09;;;;;;;3.87;2.17;;;11.10;1.00;;;;;;5105087;27;20930;-74